createdAt,value
2023-09-23T00:00:17.281Z,94.60
2023-09-23T00:05:19.624Z,95.00
2023-09-23T00:10:21.919Z,94.60
2023-09-23T00:15:23.772Z,94.40
2023-09-23T00:20:28.432Z,94.10
2023-09-23T00:25:30.229Z,94.60
2023-09-23T00:30:33.846Z,94.20
2023-09-23T00:35:37.710Z,94.10
2023-09-23T00:46:06.890Z,94.20
2023-09-23T00:51:08.994Z,94.10
2023-09-23T00:56:11.318Z,94.40
2023-09-23T01:01:15.379Z,94.80
2023-09-23T01:06:18.870Z,94.60
2023-09-23T01:11:20.944Z,94.70
2023-09-23T01:16:23.823Z,94.90
2023-09-23T01:21:25.998Z,95.30
2023-09-23T01:26:28.642Z,95.10
2023-09-23T01:31:30.702Z,95.10
2023-09-23T01:36:32.789Z,95.10
2023-09-23T01:41:35.204Z,95.00
2023-09-23T01:46:37.002Z,94.80
2023-09-23T01:51:38.822Z,94.60
2023-09-23T01:56:40.618Z,94.80
2023-09-23T02:01:42.756Z,94.90
2023-09-23T02:06:44.920Z,95.00
2023-09-23T02:11:46.767Z,95.00
2023-09-23T02:16:48.796Z,95.00
2023-09-23T02:21:52.899Z,95.20
2023-09-23T02:26:54.636Z,95.30
2023-09-23T02:31:57.096Z,95.40
2023-09-23T02:36:58.901Z,95.70
2023-09-23T02:42:01.180Z,96.20
2023-09-23T02:47:03.764Z,96.20
2023-09-23T02:52:07.428Z,96.10
2023-09-23T02:57:13.237Z,95.80
2023-09-23T03:02:21.545Z,95.50
2023-09-23T03:07:23.452Z,95.30
2023-09-23T03:12:27.439Z,95.60
2023-09-23T03:17:30.105Z,95.30
2023-09-23T03:22:32.256Z,95.50
2023-09-23T03:27:34.020Z,95.30
2023-09-23T03:32:35.936Z,95.20
2023-09-23T03:37:37.897Z,95.40
2023-09-23T03:42:40.581Z,94.90
2023-09-23T03:47:42.375Z,94.80
2023-09-23T03:52:44.479Z,95.00
2023-09-23T03:57:47.636Z,94.90
2023-09-23T04:02:49.563Z,95.00
2023-09-23T04:07:51.830Z,94.80
2023-09-23T04:12:55.602Z,95.10
2023-09-23T04:17:57.403Z,94.90
2023-09-23T04:22:59.266Z,94.80
2023-09-23T04:28:02.791Z,94.70
2023-09-23T04:33:05.631Z,95.00
2023-09-23T04:38:07.565Z,94.90
2023-09-23T04:43:11.259Z,94.90
2023-09-23T04:48:13.168Z,94.70
2023-09-23T04:53:15.650Z,95.00
2023-09-23T04:58:18.202Z,95.40
2023-09-23T05:03:20.863Z,94.90
2023-09-23T05:08:22.706Z,94.80
2023-09-23T05:13:25.617Z,94.80
2023-09-23T05:18:27.415Z,94.80
2023-09-23T05:23:29.958Z,94.60
2023-09-23T05:28:31.913Z,94.90
2023-09-23T05:33:33.642Z,95.00
2023-09-23T05:38:38.346Z,94.80
2023-09-23T05:43:40.729Z,94.60
2023-09-23T05:48:42.913Z,94.90
2023-09-23T05:53:45.043Z,94.80
2023-09-23T05:58:47.413Z,94.80
2023-09-23T06:03:50.547Z,94.70
2023-09-23T06:08:52.621Z,94.80
2023-09-23T06:13:54.414Z,95.00
2023-09-23T06:18:56.178Z,95.00
2023-09-23T06:23:57.934Z,95.10
2023-09-23T06:28:59.996Z,95.70
2023-09-23T06:34:01.843Z,95.50
2023-09-23T06:39:04.144Z,95.60
2023-09-23T06:44:08.231Z,95.80
2023-09-23T06:49:10.093Z,95.50
2023-09-23T06:54:11.857Z,96.50
2023-09-23T06:59:13.612Z,97.30
2023-09-23T07:04:15.743Z,97.60
2023-09-23T07:09:17.588Z,98.10
2023-09-23T07:14:19.440Z,99.90
2023-09-23T07:19:21.233Z,99.90
2023-09-23T07:24:22.935Z,99.90
2023-09-23T07:29:25.151Z,99.90
2023-09-23T07:34:26.977Z,99.90
2023-09-23T07:39:29.336Z,99.90
2023-09-23T07:44:31.087Z,99.90
2023-09-23T07:49:32.820Z,99.90
2023-09-23T07:54:34.958Z,99.90
2023-09-23T07:59:36.904Z,99.90
2023-09-23T08:04:38.809Z,99.90
2023-09-23T08:09:40.552Z,99.90
2023-09-23T08:14:42.294Z,99.90
2023-09-23T08:19:45.136Z,99.90
2023-09-23T08:24:46.981Z,99.90
2023-09-23T08:29:50.860Z,99.90
2023-09-23T08:34:52.616Z,99.90
2023-09-23T08:39:54.364Z,99.90
2023-09-23T08:44:56.166Z,99.90
2023-09-23T08:49:58.111Z,99.90
2023-09-23T08:55:01.388Z,99.90
2023-09-23T09:00:08.884Z,99.90
2023-09-23T09:05:10.656Z,99.90
2023-09-23T09:10:12.523Z,99.90
2023-09-23T09:15:18.891Z,99.90
2023-09-23T09:20:20.711Z,99.90
2023-09-23T09:25:22.845Z,99.90
2023-09-23T09:30:24.629Z,99.90
2023-09-23T09:35:28.425Z,99.90
2023-09-23T09:40:30.702Z,99.90
2023-09-23T09:45:35.826Z,99.90
2023-09-23T09:50:40.738Z,99.90
2023-09-23T09:55:42.954Z,99.90
2023-09-23T10:00:48.812Z,99.90
2023-09-23T10:05:52.527Z,99.90
2023-09-23T10:11:04.022Z,99.90
2023-09-23T10:16:13.618Z,99.90
2023-09-23T10:21:26.214Z,99.90
2023-09-23T10:26:30.534Z,99.90
2023-09-23T10:31:36.073Z,99.90
2023-09-23T10:36:38.256Z,99.90
2023-09-23T10:41:41.471Z,99.90
2023-09-23T10:46:43.369Z,99.90
2023-09-23T10:51:45.246Z,99.90
2023-09-23T10:56:47.314Z,99.90
2023-09-23T11:01:50.670Z,99.90
2023-09-23T11:06:52.955Z,99.90
2023-09-23T11:11:55.715Z,99.90
2023-09-23T11:16:57.465Z,99.90
2023-09-23T11:22:00.085Z,99.90
2023-09-23T11:27:07.399Z,99.90
2023-09-23T11:32:09.971Z,99.90
2023-09-23T11:37:11.792Z,99.90
2023-09-23T11:42:13.580Z,99.90
2023-09-23T11:47:15.370Z,99.90
2023-09-23T11:52:17.167Z,99.90
2023-09-23T11:57:18.909Z,99.90
2023-09-23T12:02:22.427Z,99.90
2023-09-23T12:07:25.260Z,99.90
2023-09-23T12:12:28.171Z,99.90
2023-09-23T12:17:29.920Z,99.90
2023-09-23T12:22:31.941Z,99.90
2023-09-23T12:27:34.352Z,99.90
2023-09-23T12:32:36.844Z,99.90
2023-09-23T12:37:39.022Z,99.90
2023-09-23T12:42:40.715Z,99.90
2023-09-23T12:47:56.185Z,99.90
2023-09-23T12:52:59.822Z,99.90
2023-09-23T12:58:01.687Z,99.90
2023-09-23T13:03:04.714Z,99.90
2023-09-23T13:08:07.174Z,99.90
2023-09-23T13:13:09.226Z,99.90
2023-09-23T13:18:11.116Z,99.90
2023-09-23T13:23:13.084Z,99.90
2023-09-23T13:28:15.125Z,99.90
2023-09-23T13:33:17.969Z,99.90
2023-09-23T13:38:19.829Z,99.90
2023-09-23T13:43:21.638Z,99.90
2023-09-23T13:48:23.495Z,99.90
2023-09-23T13:53:25.380Z,99.90
2023-09-23T13:58:27.104Z,99.90
2023-09-23T14:03:28.985Z,99.90
2023-09-23T14:08:30.846Z,99.90
2023-09-23T14:13:32.885Z,99.90
2023-09-23T14:18:36.038Z,99.90
2023-09-23T14:23:37.964Z,99.90
2023-09-23T14:28:42.442Z,99.90
2023-09-23T14:33:44.351Z,99.90
2023-09-23T14:38:46.572Z,99.90
2023-09-23T14:43:48.565Z,99.90
2023-09-23T14:48:50.337Z,99.90
2023-09-23T14:53:52.175Z,99.90
2023-09-23T14:58:54.426Z,99.90
2023-09-23T15:03:56.289Z,99.90
2023-09-23T15:09:00.762Z,99.90
2023-09-23T15:14:03.601Z,99.90
2023-09-23T15:19:05.430Z,99.90
2023-09-23T15:24:08.019Z,99.90
2023-09-23T15:29:10.906Z,99.90
2023-09-23T15:34:12.784Z,99.90
2023-09-23T15:39:14.550Z,99.90
2023-09-23T15:44:16.535Z,99.90
2023-09-23T15:49:18.284Z,99.90
2023-09-23T15:54:20.045Z,99.90
2023-09-23T15:59:24.328Z,99.90
2023-09-23T16:04:26.459Z,99.90
2023-09-23T16:09:30.098Z,99.90
2023-09-23T16:14:31.856Z,99.90
2023-09-23T16:19:33.590Z,99.90
2023-09-23T16:24:35.344Z,99.90
2023-09-23T16:29:37.161Z,99.90
2023-09-23T16:34:38.964Z,99.90
2023-09-23T16:39:41.177Z,99.90
2023-09-23T16:44:44.795Z,99.90
2023-09-23T16:49:46.662Z,99.90
2023-09-23T16:54:50.378Z,99.90
2023-09-23T16:59:52.216Z,99.90
2023-09-23T17:04:54.025Z,99.90
2023-09-23T17:09:55.850Z,99.90
2023-09-23T17:14:57.597Z,99.90
2023-09-23T17:19:59.466Z,99.90
2023-09-23T17:25:01.395Z,99.90
2023-09-23T17:30:05.831Z,99.90
2023-09-23T17:35:07.781Z,99.90
2023-09-23T17:40:09.970Z,99.90
2023-09-23T17:45:11.736Z,99.90
2023-09-23T17:50:13.636Z,99.90
2023-09-23T17:55:15.533Z,99.90
2023-09-23T18:00:17.734Z,99.90
2023-09-23T18:05:19.646Z,99.90
2023-09-23T18:10:21.376Z,99.90
2023-09-23T18:15:23.259Z,99.90
2023-09-23T18:20:27.769Z,99.90
2023-09-23T18:25:30.162Z,99.90
2023-09-23T18:30:32.833Z,99.90
2023-09-23T18:35:34.906Z,99.90
2023-09-23T18:40:37.474Z,99.90
2023-09-23T18:45:42.304Z,99.90
2023-09-23T18:50:46.153Z,99.90
2023-09-23T18:55:48.140Z,99.90
2023-09-23T19:00:49.895Z,99.90
2023-09-23T19:05:53.613Z,99.90
2023-09-23T19:10:55.826Z,99.90
2023-09-23T19:15:57.594Z,99.90
2023-09-23T19:21:00.135Z,99.90
2023-09-23T19:26:04.084Z,99.90
2023-09-23T19:31:06.032Z,99.90
2023-09-23T19:36:11.181Z,99.90
2023-09-23T19:41:13.020Z,99.90
2023-09-23T19:46:14.946Z,99.90
2023-09-23T19:51:16.900Z,99.90
2023-09-23T19:56:19.926Z,99.90
2023-09-23T20:01:23.988Z,99.90
2023-09-23T20:06:25.888Z,99.90
2023-09-23T20:11:28.181Z,99.90
2023-09-23T20:16:30.384Z,99.90
2023-09-23T20:21:32.606Z,99.90
2023-09-23T20:26:36.591Z,99.90
2023-09-23T20:31:41.841Z,99.90
2023-09-23T20:36:45.360Z,99.90
2023-09-23T20:41:47.113Z,99.90
2023-09-23T20:46:49.732Z,99.90
2023-09-23T20:51:52.912Z,99.90
2023-09-23T20:56:54.785Z,99.90
2023-09-23T21:01:56.800Z,99.90
2023-09-23T21:06:58.628Z,99.90
2023-09-23T21:12:00.345Z,99.90
2023-09-23T21:17:02.495Z,99.90
2023-09-23T21:22:04.277Z,99.90
2023-09-23T21:27:06.169Z,99.90
2023-09-23T21:32:07.889Z,99.90
2023-09-23T21:37:09.640Z,99.90
2023-09-23T21:42:13.444Z,99.90
2023-09-23T21:47:17.737Z,99.90
2023-09-23T21:52:19.513Z,99.90
2023-09-23T21:57:21.391Z,99.90
2023-09-23T22:02:26.202Z,99.90
2023-09-23T22:07:28.144Z,99.90
2023-09-23T22:12:31.412Z,99.90
2023-09-23T22:17:34.012Z,99.90
2023-09-23T22:22:36.000Z,99.90
2023-09-23T22:27:38.201Z,99.90
2023-09-23T22:32:40.813Z,99.90
2023-09-23T22:37:42.868Z,99.90
2023-09-23T22:42:45.456Z,99.90
2023-09-23T22:47:48.888Z,99.90
2023-09-23T22:52:51.121Z,99.90
2023-09-23T22:57:53.359Z,99.90
2023-09-23T23:02:58.664Z,99.90
2023-09-23T23:08:02.176Z,99.90
2023-09-23T23:13:08.462Z,99.90
2023-09-23T23:18:11.949Z,99.90
2023-09-23T23:23:13.788Z,99.90
2023-09-23T23:28:15.514Z,99.90
2023-09-23T23:33:18.444Z,99.90
2023-09-23T23:38:20.934Z,99.90
2023-09-23T23:43:26.000Z,99.90
2023-09-23T23:48:32.216Z,99.90
2023-09-23T23:53:35.009Z,99.90
2023-09-23T23:58:40.236Z,99.90
